createdAt,value
2019-04-19T00:00:10.213Z,0
2019-04-19T00:01:11.308Z,0
2019-04-19T00:02:12.248Z,0
2019-04-19T00:03:17.670Z,0
2019-04-19T00:04:16.190Z,0
2019-04-19T00:05:13.753Z,0
2019-04-19T00:06:21.409Z,0
2019-04-19T00:07:21.160Z,0
2019-04-19T00:08:34.684Z,0
2019-04-19T00:09:30.772Z,0
2019-04-19T00:10:31.721Z,0
2019-04-19T00:11:31.738Z,0
2019-04-19T00:12:34.954Z,0
2019-04-19T00:13:26.234Z,0
2019-04-19T00:14:27.596Z,0
2019-04-19T00:15:28.681Z,0
2019-04-19T00:16:29.798Z,0
2019-04-19T00:17:32.710Z,0
2019-04-19T00:18:32.676Z,0
2019-04-19T00:19:54.296Z,0
2019-04-19T00:20:59.931Z,0
2019-04-19T00:22:01.879Z,0
2019-04-19T00:22:52.399Z,0
2019-04-19T00:23:44.862Z,0
2019-04-19T00:24:41.952Z,0
2019-04-19T00:25:43.372Z,0
2019-04-19T00:26:44.838Z,0
2019-04-19T00:27:51.655Z,0
2019-04-19T00:28:53.712Z,0
2019-04-19T00:29:57.113Z,0
2019-04-19T00:31:00.421Z,0
2019-04-19T00:32:08.083Z,0
2019-04-19T00:33:05.475Z,0
2019-04-19T00:33:57.206Z,0
2019-04-19T00:34:56.694Z,0
2019-04-19T00:35:58.110Z,0
2019-04-19T00:36:59.380Z,0
2019-04-19T00:38:09.423Z,0
2019-04-19T00:39:18.983Z,0
2019-04-19T00:40:21.200Z,0
2019-04-19T00:41:24.313Z,0
2019-04-19T00:42:25.449Z,0
2019-04-19T00:43:27.425Z,0
2019-04-19T00:44:37.610Z,0
2019-04-19T00:45:26.241Z,0
2019-04-19T00:46:31.385Z,0
2019-04-19T00:47:35.454Z,0
2019-04-19T00:48:48.936Z,0
2019-04-19T00:49:27.895Z,0
2019-04-19T00:50:29.334Z,0
2019-04-19T00:51:36.715Z,0
2019-04-19T00:52:55.846Z,0
2019-04-19T00:53:31.645Z,0
2019-04-19T00:54:32.871Z,0
2019-04-19T00:55:42.632Z,0
2019-04-19T00:56:39.804Z,0
2019-04-19T00:57:38.226Z,0
2019-04-19T00:58:34.053Z,0
2019-04-19T00:59:38.566Z,0
2019-04-19T01:00:36.772Z,0
2019-04-19T01:01:35.711Z,0
2019-04-19T01:02:44.054Z,0
2019-04-19T01:03:43.591Z,0
2019-04-19T01:04:41.119Z,0
2019-04-19T01:05:47.196Z,0
2019-04-19T01:06:49.828Z,0
2019-04-19T01:07:45.363Z,0
2019-04-19T01:08:54.231Z,0
2019-04-19T01:10:04.912Z,0
2019-04-19T01:11:06.171Z,0
2019-04-19T01:12:03.300Z,0
2019-04-19T01:13:04.114Z,0
2019-04-19T01:14:10.863Z,0
2019-04-19T01:15:06.949Z,0
2019-04-19T01:16:05.899Z,0
2019-04-19T01:17:14.866Z,0
2019-04-19T01:18:12.667Z,0
2019-04-19T01:19:06.797Z,0
2019-04-19T01:20:03.952Z,0
2019-04-19T01:21:02.864Z,0
2019-04-19T01:22:11.663Z,0
2019-04-19T01:23:10.186Z,0
2019-04-19T01:24:07.814Z,0
2019-04-19T01:25:14.464Z,0
2019-04-19T01:26:12.055Z,0
2019-04-19T01:27:13.249Z,0
2019-04-19T01:28:17.864Z,0
2019-04-19T01:29:15.622Z,0
2019-04-19T01:30:23.095Z,0
2019-04-19T01:31:21.409Z,0
2019-04-19T01:32:22.627Z,0
2019-04-19T01:33:28.271Z,0
2019-04-19T01:34:26.271Z,0
2019-04-19T01:35:26.104Z,0
2019-04-19T01:36:32.465Z,0
2019-04-19T01:37:30.010Z,0
2019-04-19T01:38:33.589Z,0
2019-04-19T01:39:46.948Z,0
2019-04-19T01:40:53.554Z,0
2019-04-19T01:41:47.041Z,0
2019-04-19T01:42:50.309Z,0
2019-04-19T01:43:54.817Z,0
2019-04-19T01:44:54.715Z,0
2019-04-19T01:45:54.628Z,0
2019-04-19T01:46:56.264Z,0
2019-04-19T01:47:56.602Z,0
2019-04-19T01:48:57.207Z,0
2019-04-19T01:49:59.713Z,0
2019-04-19T01:51:03.297Z,0
2019-04-19T01:52:05.792Z,0
2019-04-19T01:53:09.717Z,0
2019-04-19T01:54:09.948Z,0
2019-04-19T01:55:02.766Z,0
2019-04-19T01:55:59.351Z,0
2019-04-19T01:56:58.381Z,0
2019-04-19T01:58:04.886Z,0
2019-04-19T01:59:00.729Z,0
2019-04-19T02:00:00.536Z,0
2019-04-19T02:01:02.949Z,0
2019-04-19T02:02:07.239Z,0
2019-04-19T02:03:06.191Z,0
2019-04-19T02:04:11.430Z,0
2019-04-19T02:05:11.607Z,0
2019-04-19T02:06:11.209Z,0
2019-04-19T02:07:12.537Z,0
2019-04-19T02:08:12.866Z,0
2019-04-19T02:09:11.515Z,0
2019-04-19T02:10:22.792Z,0
2019-04-19T02:11:27.941Z,0
2019-04-19T02:12:30.780Z,0
2019-04-19T02:13:24.770Z,0
2019-04-19T02:14:22.758Z,0
2019-04-19T02:15:33.073Z,0
2019-04-19T02:16:23.908Z,0
2019-04-19T02:17:23.110Z,0
2019-04-19T02:18:27.380Z,0
2019-04-19T02:19:28.062Z,0
2019-04-19T02:20:33.748Z,0
2019-04-19T02:21:33.254Z,0
2019-04-19T02:22:33.087Z,0
2019-04-19T02:23:34.027Z,0
2019-04-19T02:24:37.588Z,0
2019-04-19T02:25:35.295Z,0
2019-04-19T02:26:38.459Z,0
2019-04-19T02:27:40.735Z,0
2019-04-19T02:28:41.043Z,0
2019-04-19T02:29:43.758Z,0
2019-04-19T02:30:53.596Z,0
2019-04-19T02:32:07.241Z,0
2019-04-19T02:33:07.058Z,0
2019-04-19T02:34:17.846Z,0
2019-04-19T02:36:15.566Z,0
2019-04-19T02:37:16.411Z,0
2019-04-19T02:38:22.262Z,0
2019-04-19T02:39:24.105Z,0
2019-04-19T02:40:38.928Z,0
2019-04-19T02:41:26.248Z,0
2019-04-19T02:42:42.260Z,0
2019-04-19T02:43:45.935Z,0
2019-04-19T02:44:24.550Z,0
2019-04-19T02:45:22.241Z,0
2019-04-19T02:46:32.701Z,0
2019-04-19T02:48:37.894Z,0
2019-04-19T02:49:44.798Z,0
2019-04-19T02:51:02.018Z,0
2019-04-19T02:51:38.452Z,0
2019-04-19T02:53:39.199Z,0
2019-04-19T02:54:45.444Z,0
2019-04-19T02:55:50.164Z,0
2019-04-19T02:56:52.186Z,0
2019-04-19T02:58:55.638Z,0
2019-04-19T03:02:04.523Z,0
2019-04-19T03:02:52.914Z,0
2019-04-19T03:04:08.547Z,0
2019-04-19T03:05:03.570Z,0
2019-04-19T03:05:47.531Z,0
2019-04-19T03:06:41.598Z,0
2019-04-19T03:07:34.944Z,0
2019-04-19T03:08:37.482Z,0
2019-04-19T03:09:41.103Z,0
2019-04-19T03:10:53.500Z,0
2019-04-19T03:11:56.331Z,0
2019-04-19T03:13:09.587Z,0
2019-04-19T03:13:57.241Z,0
2019-04-19T03:15:01.780Z,0
2019-04-19T03:16:02.916Z,0
2019-04-19T03:17:14.060Z,0
2019-04-19T03:18:14.737Z,0
2019-04-19T03:20:11.922Z,0
2019-04-19T03:21:10.647Z,0
2019-04-19T03:22:16.356Z,0
2019-04-19T03:23:13.936Z,0
2019-04-19T03:24:15.379Z,0
2019-04-19T03:25:15.282Z,0
2019-04-19T03:26:20.711Z,0
2019-04-19T03:27:13.686Z,0
2019-04-19T03:28:17.238Z,0
2019-04-19T03:29:10.944Z,0
2019-04-19T03:30:25.198Z,0
2019-04-19T03:34:50.309Z,0
2019-04-19T03:35:41.052Z,0
2019-04-19T03:36:31.090Z,0
2019-04-19T03:37:39.707Z,0
2019-04-19T03:38:35.113Z,0
2019-04-19T03:40:39.038Z,0
2019-04-19T03:42:01.016Z,0
2019-04-19T03:42:44.741Z,0
2019-04-19T03:43:57.209Z,0
2019-04-19T03:44:40.217Z,0
2019-04-19T03:45:51.668Z,0
2019-04-19T03:49:08.667Z,0
2019-04-19T03:49:52.712Z,0
2019-04-19T03:51:00.364Z,0
2019-04-19T03:52:04.673Z,0
2019-04-19T03:52:58.686Z,0
2019-04-19T03:54:00.242Z,0
2019-04-19T03:54:56.077Z,0
2019-04-19T03:56:06.261Z,0
2019-04-19T03:57:00.357Z,0
2019-04-19T03:57:55.074Z,0
2019-04-19T03:58:51.296Z,0
2019-04-19T03:59:50.449Z,0
2019-04-19T04:00:52.018Z,0
2019-04-19T04:01:56.269Z,0
2019-04-19T04:02:54.719Z,0
2019-04-19T04:04:01.930Z,0
2019-04-19T04:05:02.730Z,0
2019-04-19T04:05:59.892Z,0
2019-04-19T04:07:07.198Z,0
2019-04-19T04:08:09.221Z,0
2019-04-19T04:09:06.221Z,0
2019-04-19T04:10:05.999Z,0
2019-04-19T04:11:12.594Z,0
2019-04-19T04:12:20.999Z,0
2019-04-19T04:13:22.572Z,0
2019-04-19T04:14:21.773Z,0
2019-04-19T04:15:23.925Z,0
2019-04-19T04:16:24.221Z,0
2019-04-19T04:17:14.941Z,0
2019-04-19T04:18:17.517Z,0
2019-04-19T04:19:18.542Z,0
2019-04-19T04:20:19.841Z,0
2019-04-19T04:21:27.305Z,0
2019-04-19T04:22:26.539Z,0
2019-04-19T04:23:29.925Z,0
2019-04-19T04:24:31.089Z,0
2019-04-19T04:25:30.150Z,0
2019-04-19T04:26:40.377Z,0
2019-04-19T04:27:41.388Z,0
2019-04-19T04:28:44.982Z,0
2019-04-19T04:29:39.128Z,0
2019-04-19T04:30:42.102Z,0
2019-04-19T04:31:45.764Z,0
2019-04-19T04:32:46.959Z,0
2019-04-19T04:33:49.562Z,0
2019-04-19T04:34:51.181Z,0
2019-04-19T04:35:53.221Z,0
2019-04-19T04:36:59.701Z,0
2019-04-19T04:37:54.424Z,0
2019-04-19T04:38:46.578Z,0
2019-04-19T04:39:47.229Z,0
2019-04-19T04:40:48.574Z,0
2019-04-19T04:41:50.146Z,0
2019-04-19T04:43:05.830Z,0
2019-04-19T04:44:10.296Z,0
2019-04-19T04:45:18.302Z,0
2019-04-19T04:46:32.717Z,0
2019-04-19T04:47:16.512Z,5
2019-04-19T04:48:16.564Z,5
2019-04-19T04:49:30.310Z,5
2019-04-19T04:50:28.981Z,5
2019-04-19T04:51:23.431Z,5
2019-04-19T04:52:14.116Z,5
2019-04-19T04:53:04.693Z,5
2019-04-19T04:54:06.153Z,5
2019-04-19T04:55:07.445Z,5
2019-04-19T04:56:10.212Z,5
2019-04-19T04:57:14.062Z,5
2019-04-19T04:58:20.074Z,5
2019-04-19T04:59:17.499Z,5
2019-04-19T05:00:15.863Z,5
2019-04-19T05:01:29.099Z,5
2019-04-19T05:02:37.876Z,5
2019-04-19T05:03:41.661Z,5
2019-04-19T05:04:34.786Z,11
2019-04-19T05:05:39.035Z,11
2019-04-19T05:06:44.925Z,11
2019-04-19T05:07:42.117Z,11
2019-04-19T05:08:45.133Z,11
2019-04-19T05:09:45.296Z,11
2019-04-19T05:10:43.504Z,11
2019-04-19T05:11:49.338Z,11
2019-04-19T05:13:04.461Z,11
2019-04-19T05:13:53.814Z,11
2019-04-19T05:14:50.031Z,11
2019-04-19T05:15:55.419Z,11
2019-04-19T05:17:04.027Z,11
2019-04-19T05:18:05.882Z,11
2019-04-19T05:18:53.786Z,11
2019-04-19T05:20:06.659Z,16
2019-04-19T05:20:58.205Z,16
2019-04-19T05:22:00.927Z,16
2019-04-19T05:23:04.480Z,16
2019-04-19T05:24:13.909Z,16
2019-04-19T05:25:28.875Z,16
2019-04-19T05:26:10.696Z,16
2019-04-19T05:27:17.669Z,16
2019-04-19T05:28:13.906Z,16
2019-04-19T05:29:09.576Z,16
2019-04-19T05:29:57.812Z,16
2019-04-19T05:31:02.278Z,16
2019-04-19T05:32:08.070Z,16
2019-04-19T05:33:09.960Z,16
2019-04-19T05:34:22.322Z,16
2019-04-19T05:35:16.721Z,16
2019-04-19T05:36:24.717Z,16
2019-04-19T05:37:21.266Z,16
2019-04-19T05:38:36.859Z,16
2019-04-19T05:39:31.557Z,16
2019-04-19T05:40:28.993Z,16
2019-04-19T05:41:28.742Z,16
2019-04-19T05:42:34.560Z,22
2019-04-19T05:43:51.461Z,22
2019-04-19T05:44:54.995Z,22
2019-04-19T05:45:42.769Z,22
2019-04-19T05:46:43.074Z,22
2019-04-19T05:47:33.634Z,22
2019-04-19T05:48:33.852Z,22
2019-04-19T05:49:43.919Z,22
2019-04-19T05:50:42.280Z,22
2019-04-19T05:51:49.651Z,22
2019-04-19T05:52:48.158Z,22
2019-04-19T05:53:36.866Z,22
2019-04-19T05:54:32.101Z,22
2019-04-19T05:55:36.821Z,22
2019-04-19T05:56:45.593Z,22
2019-04-19T05:57:54.077Z,22
2019-04-19T05:58:57.335Z,22
2019-04-19T05:59:55.391Z,22
2019-04-19T06:01:04.656Z,22
2019-04-19T06:02:05.424Z,22
2019-04-19T06:03:11.769Z,22
2019-04-19T06:04:21.341Z,22
2019-04-19T06:05:32.049Z,22
2019-04-19T06:06:32.367Z,22
2019-04-19T06:07:31.748Z,22
2019-04-19T06:08:25.200Z,22
2019-04-19T06:09:21.923Z,22
2019-04-19T06:10:31.422Z,22
2019-04-19T06:11:33.363Z,22
2019-04-19T06:12:36.921Z,22
2019-04-19T06:13:42.468Z,22
2019-04-19T06:15:05.218Z,22
2019-04-19T06:16:05.690Z,28
2019-04-19T06:16:58.078Z,28
2019-04-19T06:18:06.767Z,28
2019-04-19T06:19:15.195Z,28
2019-04-19T06:20:15.973Z,28
2019-04-19T06:21:29.164Z,28
2019-04-19T06:22:13.137Z,28
2019-04-19T06:23:31.000Z,28
2019-04-19T06:24:31.690Z,28
2019-04-19T06:25:46.473Z,28
2019-04-19T06:26:53.740Z,28
2019-04-19T06:28:02.724Z,28
2019-04-19T06:28:59.904Z,28
2019-04-19T06:29:58.873Z,28
2019-04-19T06:30:54.675Z,28
2019-04-19T06:32:20.763Z,28
2019-04-19T06:33:15.673Z,28
2019-04-19T06:34:17.676Z,28
2019-04-19T06:35:15.316Z,28
2019-04-19T06:36:18.959Z,28
2019-04-19T06:37:27.995Z,28
2019-04-19T06:38:33.041Z,28
2019-04-19T06:39:39.549Z,28
2019-04-19T06:40:52.338Z,28
2019-04-19T06:42:01.024Z,28
2019-04-19T06:43:09.773Z,28
2019-04-19T06:44:19.923Z,28
2019-04-19T06:45:39.169Z,28
2019-04-19T06:46:41.162Z,28
2019-04-19T06:47:46.497Z,28
2019-04-19T06:48:54.198Z,28
2019-04-19T06:49:58.918Z,28
2019-04-19T06:51:15.515Z,28
2019-04-19T06:52:17.707Z,28
2019-04-19T06:53:23.144Z,28
2019-04-19T06:54:36.762Z,28
2019-04-19T06:55:48.080Z,28
2019-04-19T06:56:59.136Z,28
2019-04-19T06:58:05.659Z,28
2019-04-19T06:59:15.803Z,28
2019-04-19T07:00:26.447Z,33
2019-04-19T07:01:33.373Z,33
2019-04-19T07:02:34.920Z,33
2019-04-19T07:03:41.346Z,33
2019-04-19T07:04:54.250Z,33
2019-04-19T07:06:09.481Z,28
2019-04-19T07:07:22.143Z,33
2019-04-19T07:08:52.344Z,33
2019-04-19T07:10:01.540Z,33
2019-04-19T07:10:50.276Z,33
2019-04-19T07:11:51.715Z,33
2019-04-19T07:12:59.196Z,33
2019-04-19T07:13:53.116Z,33
2019-04-19T07:15:12.354Z,33
2019-04-19T07:16:23.604Z,33
2019-04-19T07:17:20.343Z,33
2019-04-19T07:18:25.389Z,33
2019-04-19T07:19:36.935Z,33
2019-04-19T07:20:29.997Z,33
2019-04-19T07:21:46.882Z,33
2019-04-19T07:22:52.098Z,33
2019-04-19T07:24:03.942Z,33
2019-04-19T07:25:15.308Z,33
2019-04-19T07:26:16.992Z,33
2019-04-19T07:27:15.544Z,33
2019-04-19T07:28:14.677Z,33
2019-04-19T07:29:16.966Z,33
2019-04-19T07:30:22.585Z,33
2019-04-19T07:31:30.445Z,33
2019-04-19T07:32:40.790Z,33
2019-04-19T07:33:53.102Z,33
2019-04-19T07:34:58.305Z,33
2019-04-19T07:36:12.228Z,33
2019-04-19T07:37:14.363Z,33
2019-04-19T07:38:39.859Z,33
2019-04-19T07:39:30.484Z,33
2019-04-19T07:40:36.762Z,39
2019-04-19T07:41:43.881Z,39
2019-04-19T07:42:51.072Z,39
2019-04-19T07:43:51.225Z,39
2019-04-19T07:44:53.865Z,39
2019-04-19T07:46:08.388Z,39
2019-04-19T07:47:10.956Z,39
2019-04-19T07:48:11.201Z,39
2019-04-19T07:49:14.074Z,39
2019-04-19T07:50:24.375Z,39
2019-04-19T07:51:28.617Z,45
2019-04-19T07:52:37.810Z,45
2019-04-19T07:53:42.384Z,45
2019-04-19T07:54:45.857Z,45
2019-04-19T07:56:00.323Z,45
2019-04-19T07:57:17.135Z,45
2019-04-19T07:59:34.517Z,50
2019-04-19T08:01:54.511Z,50
2019-04-19T08:02:54.876Z,50
2019-04-19T08:04:10.404Z,50
2019-04-19T08:06:18.443Z,56
2019-04-19T08:09:39.554Z,61
2019-04-19T08:11:26.679Z,61
2019-04-19T08:12:01.531Z,67
2019-04-19T08:12:55.066Z,67
2019-04-19T08:15:17.362Z,73
2019-04-19T08:16:14.216Z,73
2019-04-19T08:17:41.577Z,73
2019-04-19T08:28:18.109Z,78
2019-04-19T08:29:28.966Z,84
2019-04-19T08:30:32.284Z,84
2019-04-19T08:31:29.850Z,84
2019-04-19T08:32:38.515Z,84
2019-04-19T08:33:44.654Z,84
2019-04-19T08:34:54.942Z,84
2019-04-19T08:36:00.871Z,84
2019-04-19T08:37:13.294Z,90
2019-04-19T08:38:19.228Z,84
2019-04-19T08:39:38.592Z,90
2019-04-19T08:40:43.836Z,90
2019-04-19T08:41:51.886Z,90
2019-04-19T08:42:54.128Z,90
2019-04-19T08:43:59.329Z,90
2019-04-19T08:44:59.178Z,95
2019-04-19T08:45:59.205Z,95
2019-04-19T08:47:16.755Z,95
2019-04-19T08:48:16.885Z,95
2019-04-19T08:49:27.050Z,101
2019-04-19T08:50:28.603Z,95
2019-04-19T08:51:38.565Z,95
2019-04-19T08:52:50.025Z,95
2019-04-19T08:53:57.049Z,101
2019-04-19T08:55:14.067Z,101
2019-04-19T08:56:13.715Z,101
2019-04-19T08:57:13.578Z,101
2019-04-19T08:58:33.337Z,101
2019-04-19T08:59:45.068Z,101
2019-04-19T09:00:58.089Z,101
2019-04-19T09:02:59.460Z,106
2019-04-19T09:04:12.199Z,106
2019-04-19T09:05:16.951Z,106
2019-04-19T09:07:17.066Z,112
2019-04-19T09:08:38.476Z,118
2019-04-19T09:10:00.057Z,118
2019-04-19T09:10:53.525Z,118
2019-04-19T09:12:01.545Z,112
2019-04-19T09:13:20.809Z,112
2019-04-19T09:14:16.234Z,112
2019-04-19T09:15:20.649Z,112
2019-04-19T09:16:24.610Z,112
2019-04-19T09:17:58.115Z,112
2019-04-19T09:18:50.656Z,112
2019-04-19T09:21:00.730Z,112
2019-04-19T09:22:07.719Z,112
2019-04-19T09:23:12.826Z,112
2019-04-19T09:24:27.723Z,112
2019-04-19T09:25:32.567Z,118
2019-04-19T09:26:44.776Z,118
2019-04-19T09:27:54.742Z,118
2019-04-19T09:29:14.282Z,118
2019-04-19T09:30:24.181Z,118
2019-04-19T09:31:31.896Z,118
2019-04-19T09:32:35.962Z,118
2019-04-19T09:33:48.661Z,118
2019-04-19T09:35:03.780Z,118
2019-04-19T09:36:17.343Z,118
2019-04-19T09:37:40.023Z,118
2019-04-19T09:38:47.224Z,118
2019-04-19T09:39:57.551Z,118
2019-04-19T09:41:13.397Z,118
2019-04-19T09:42:21.740Z,118
2019-04-19T09:43:48.148Z,123
2019-04-19T09:44:54.163Z,118
2019-04-19T09:46:04.054Z,118
2019-04-19T09:47:16.456Z,123
2019-04-19T09:48:36.551Z,123
2019-04-19T09:49:47.875Z,129
2019-04-19T09:50:54.983Z,123
2019-04-19T09:52:05.835Z,123
2019-04-19T09:53:30.780Z,123
2019-04-19T09:54:43.466Z,123
2019-04-19T09:55:49.830Z,123
2019-04-19T09:57:00.044Z,123
2019-04-19T09:58:17.186Z,123
2019-04-19T09:59:24.220Z,123
2019-04-19T10:00:32.034Z,123
2019-04-19T10:01:49.880Z,123
2019-04-19T10:03:01.440Z,129
2019-04-19T10:04:11.145Z,129
2019-04-19T10:05:28.773Z,123
2019-04-19T10:06:43.341Z,129
2019-04-19T10:07:57.069Z,129
2019-04-19T10:09:13.799Z,129
2019-04-19T10:10:22.981Z,129
2019-04-19T10:11:36.926Z,129
2019-04-19T10:12:51.820Z,129
2019-04-19T10:14:08.508Z,129
2019-04-19T10:15:18.173Z,129
2019-04-19T10:16:30.511Z,135
2019-04-19T10:17:44.648Z,135
2019-04-19T10:19:05.771Z,135
2019-04-19T10:20:12.978Z,140
2019-04-19T10:21:27.569Z,140
2019-04-19T10:22:37.261Z,140
2019-04-19T10:23:54.010Z,140
2019-04-19T10:25:07.184Z,140
2019-04-19T10:26:24.263Z,140
2019-04-19T10:27:39.555Z,140
2019-04-19T10:28:50.616Z,140
2019-04-19T10:30:04.348Z,140
2019-04-19T10:31:31.422Z,146
2019-04-19T10:32:54.265Z,146
2019-04-19T10:34:10.098Z,151
2019-04-19T10:35:27.385Z,151
2019-04-19T10:36:48.642Z,157
2019-04-19T10:38:01.846Z,225
2019-04-19T10:39:23.813Z,360
2019-04-19T10:40:44.377Z,264
2019-04-19T10:42:01.922Z,168
2019-04-19T10:43:19.511Z,168
2019-04-19T10:44:34.341Z,157
2019-04-19T10:46:00.547Z,157
2019-04-19T10:47:22.887Z,157
2019-04-19T10:48:41.592Z,157
2019-04-19T10:50:11.942Z,151
2019-04-19T10:51:21.569Z,151
2019-04-19T10:52:41.762Z,157
2019-04-19T10:54:00.012Z,157
2019-04-19T10:55:18.176Z,163
2019-04-19T10:56:40.652Z,163
2019-04-19T10:58:03.308Z,168
2019-04-19T10:59:22.595Z,168
2019-04-19T11:00:43.080Z,174
2019-04-19T11:02:06.251Z,174
2019-04-19T11:03:26.559Z,180
2019-04-19T11:04:48.794Z,180
2019-04-19T11:06:08.984Z,180
2019-04-19T11:07:27.543Z,163
2019-04-19T11:08:54.098Z,163
2019-04-19T11:10:17.925Z,168
2019-04-19T11:11:45.526Z,163
2019-04-19T11:13:06.439Z,168
2019-04-19T11:14:30.170Z,168
2019-04-19T11:15:52.039Z,168
2019-04-19T11:17:13.865Z,168
2019-04-19T11:18:41.567Z,168
2019-04-19T11:20:17.929Z,174
2019-04-19T11:21:31.710Z,174
2019-04-19T11:22:53.476Z,174
2019-04-19T11:24:20.013Z,174
2019-04-19T11:25:52.057Z,174
2019-04-19T11:27:17.631Z,174
2019-04-19T11:28:45.167Z,180
2019-04-19T11:30:03.693Z,180
2019-04-19T11:31:33.925Z,180
2019-04-19T11:33:07.069Z,180
2019-04-19T11:34:33.735Z,185
2019-04-19T11:35:57.341Z,185
2019-04-19T11:37:18.411Z,185
2019-04-19T11:38:40.813Z,191
2019-04-19T11:40:06.934Z,191
2019-04-19T11:41:27.700Z,191
2019-04-19T11:42:48.962Z,191
2019-04-19T11:44:17.428Z,196
2019-04-19T11:45:35.720Z,196
2019-04-19T11:47:03.397Z,196
2019-04-19T11:48:22.743Z,196
2019-04-19T11:49:47.344Z,196
2019-04-19T11:51:09.566Z,196
2019-04-19T11:52:34.146Z,196
2019-04-19T11:53:58.624Z,196
2019-04-19T11:55:28.607Z,196
2019-04-19T11:56:54.076Z,196
2019-04-19T11:58:12.515Z,202
2019-04-19T11:59:39.146Z,202
2019-04-19T12:00:56.118Z,202
2019-04-19T12:02:22.065Z,202
2019-04-19T12:03:47.911Z,202
2019-04-19T12:05:16.440Z,202
2019-04-19T12:06:38.466Z,202
2019-04-19T12:08:02.357Z,208
2019-04-19T12:09:30.290Z,208
2019-04-19T12:11:04.220Z,208
2019-04-19T12:12:39.111Z,208
2019-04-19T12:14:12.282Z,208
2019-04-19T12:15:48.435Z,208
2019-04-19T12:17:27.400Z,213
2019-04-19T12:19:04.348Z,225
2019-04-19T12:20:35.926Z,219
2019-04-19T12:22:07.243Z,213
2019-04-19T12:23:41.485Z,213
2019-04-19T12:25:13.491Z,213
2019-04-19T12:26:45.170Z,213
2019-04-19T12:28:15.459Z,213
2019-04-19T12:29:48.089Z,219
2019-04-19T12:31:17.221Z,219
2019-04-19T12:32:43.495Z,225
2019-04-19T12:34:10.084Z,534
2019-04-19T12:35:41.239Z,1018
2019-04-19T12:37:15.193Z,247
2019-04-19T12:38:44.094Z,225
2019-04-19T12:40:08.653Z,225
2019-04-19T12:41:30.496Z,225
2019-04-19T12:42:51.990Z,225
2019-04-19T12:44:13.287Z,225
2019-04-19T12:45:30.150Z,225
2019-04-19T12:46:48.657Z,225
2019-04-19T12:48:03.361Z,225
2019-04-19T12:49:20.518Z,225
2019-04-19T12:50:37.298Z,230
2019-04-19T12:51:50.193Z,225
2019-04-19T12:53:06.307Z,225
2019-04-19T12:54:18.240Z,225
2019-04-19T12:55:32.241Z,230
2019-04-19T12:56:47.552Z,225
2019-04-19T12:57:59.397Z,258
2019-04-19T12:59:13.854Z,534
2019-04-19T13:00:26.348Z,416
2019-04-19T13:01:37.604Z,270
2019-04-19T13:02:49.931Z,225
2019-04-19T13:04:04.221Z,219
2019-04-19T13:05:18.302Z,219
2019-04-19T13:06:31.585Z,219
2019-04-19T13:07:41.335Z,219
2019-04-19T13:08:52.933Z,219
2019-04-19T13:10:09.047Z,219
2019-04-19T13:11:20.991Z,213
2019-04-19T13:12:31.342Z,213
2019-04-19T13:13:43.717Z,213
2019-04-19T13:14:51.306Z,213
2019-04-19T13:16:06.158Z,213
2019-04-19T13:17:16.049Z,213
2019-04-19T13:18:24.463Z,213
2019-04-19T13:19:33.431Z,213
2019-04-19T13:20:43.960Z,219
2019-04-19T13:21:58.538Z,219
2019-04-19T13:23:08.440Z,219
2019-04-19T13:24:20.347Z,219
2019-04-19T13:25:29.223Z,225
2019-04-19T13:26:41.196Z,225
2019-04-19T13:27:54.390Z,225
2019-04-19T13:29:07.240Z,230
2019-04-19T13:30:23.828Z,236
2019-04-19T13:31:34.603Z,275
2019-04-19T13:32:47.476Z,405
2019-04-19T13:34:05.108Z,1996
2019-04-19T13:35:25.173Z,3076
2019-04-19T13:36:37.798Z,2857
2019-04-19T13:37:52.007Z,2919
2019-04-19T13:39:06.790Z,3206
2019-04-19T13:40:22.141Z,3161
2019-04-19T13:41:36.861Z,3178
2019-04-19T13:42:53.757Z,3093
2019-04-19T13:44:08.962Z,2902
2019-04-19T13:45:29.085Z,3003
2019-04-19T13:46:37.028Z,3020
2019-04-19T13:47:48.904Z,2716
2019-04-19T13:49:00.805Z,2649
2019-04-19T13:50:17.413Z,2981
2019-04-19T13:51:24.709Z,2902
2019-04-19T13:52:39.217Z,3099
2019-04-19T13:53:48.841Z,3121
2019-04-19T13:54:56.834Z,2958
2019-04-19T13:56:06.581Z,3020
2019-04-19T13:57:15.591Z,2992
2019-04-19T13:58:22.645Z,2986
2019-04-19T13:59:35.513Z,3121
2019-04-19T14:00:36.218Z,3099
2019-04-19T14:01:42.934Z,2936
2019-04-19T14:02:51.634Z,1462
2019-04-19T14:03:59.723Z,444
2019-04-19T14:05:09.417Z,393
2019-04-19T14:06:18.167Z,360
2019-04-19T14:07:25.311Z,337
2019-04-19T14:08:34.079Z,320
2019-04-19T14:09:39.167Z,303
2019-04-19T14:10:46.152Z,292
2019-04-19T14:11:51.618Z,286
2019-04-19T14:12:57.115Z,281
2019-04-19T14:14:04.809Z,275
2019-04-19T14:15:09.215Z,270
2019-04-19T14:16:15.141Z,264
2019-04-19T14:17:21.958Z,258
2019-04-19T14:18:28.696Z,258
2019-04-19T14:19:34.425Z,253
2019-04-19T14:20:42.507Z,253
2019-04-19T14:21:45.119Z,253
2019-04-19T14:22:57.266Z,247
2019-04-19T14:24:01.710Z,247
2019-04-19T14:25:09.540Z,247
2019-04-19T14:26:29.454Z,253
2019-04-19T14:27:29.398Z,247
2019-04-19T14:28:36.744Z,253
2019-04-19T14:29:43.522Z,253
2019-04-19T14:30:49.265Z,253
2019-04-19T14:31:55.124Z,253
2019-04-19T14:33:04.223Z,258
2019-04-19T14:34:11.065Z,258
2019-04-19T14:35:17.304Z,258
2019-04-19T14:36:21.955Z,258
2019-04-19T14:37:25.871Z,264
2019-04-19T14:38:32.088Z,258
2019-04-19T14:39:38.467Z,258
2019-04-19T14:40:47.639Z,264
2019-04-19T14:41:51.718Z,264
2019-04-19T14:42:56.234Z,264
2019-04-19T14:44:04.702Z,264
2019-04-19T14:45:12.114Z,264
2019-04-19T14:46:20.586Z,264
2019-04-19T14:47:28.682Z,264
2019-04-19T14:48:40.012Z,258
2019-04-19T14:49:47.028Z,258
2019-04-19T14:50:55.726Z,258
2019-04-19T14:52:00.943Z,258
2019-04-19T14:53:07.954Z,258
2019-04-19T14:54:14.669Z,253
2019-04-19T14:55:21.068Z,253
2019-04-19T14:56:28.108Z,253
2019-04-19T14:57:32.474Z,247
2019-04-19T14:58:36.248Z,247
2019-04-19T14:59:43.050Z,247
2019-04-19T15:00:51.210Z,241
2019-04-19T15:01:57.112Z,241
2019-04-19T15:03:04.990Z,241
2019-04-19T15:04:13.126Z,236
2019-04-19T15:05:23.440Z,236
2019-04-19T15:06:31.376Z,236
2019-04-19T15:07:40.841Z,230
2019-04-19T15:08:47.584Z,230
2019-04-19T15:09:55.772Z,230
2019-04-19T15:11:07.500Z,225
2019-04-19T15:12:20.715Z,225
2019-04-19T15:13:31.054Z,225
2019-04-19T15:14:45.042Z,225
2019-04-19T15:16:01.985Z,225
2019-04-19T15:17:16.572Z,219
2019-04-19T15:18:31.958Z,219
2019-04-19T15:19:52.796Z,213
2019-04-19T15:21:14.195Z,213
2019-04-19T15:22:30.454Z,213
2019-04-19T15:23:44.782Z,208
2019-04-19T15:25:03.017Z,208
2019-04-19T15:26:18.935Z,208
2019-04-19T15:27:39.311Z,202
2019-04-19T15:28:56.372Z,202
2019-04-19T15:30:18.942Z,202
2019-04-19T15:31:30.229Z,196
2019-04-19T15:32:38.580Z,202
2019-04-19T15:33:50.307Z,202
2019-04-19T15:35:01.303Z,202
2019-04-19T15:36:11.140Z,219
2019-04-19T15:37:23.154Z,528
2019-04-19T15:38:37.734Z,1316
2019-04-19T15:39:51.613Z,1468
2019-04-19T15:41:01.932Z,1563
2019-04-19T15:42:14.062Z,1653
2019-04-19T15:43:21.756Z,1636
2019-04-19T15:44:34.907Z,1636
2019-04-19T15:45:43.504Z,1687
2019-04-19T15:46:53.709Z,1732
2019-04-19T15:48:04.793Z,1665
2019-04-19T15:49:12.783Z,1710
2019-04-19T15:50:24.252Z,1715
2019-04-19T15:51:36.052Z,1653
2019-04-19T15:52:46.235Z,1642
2019-04-19T15:53:58.203Z,1670
2019-04-19T15:55:10.115Z,1738
2019-04-19T15:56:20.411Z,1693
2019-04-19T15:57:28.496Z,1721
2019-04-19T15:58:40.782Z,1687
2019-04-19T15:59:49.605Z,1642
2019-04-19T16:01:00.074Z,1625
2019-04-19T16:02:08.222Z,1608
2019-04-19T16:03:22.227Z,1608
2019-04-19T16:04:31.503Z,1631
2019-04-19T16:05:44.216Z,1636
2019-04-19T16:06:54.354Z,1653
2019-04-19T16:08:06.476Z,1648
2019-04-19T16:09:21.334Z,1670
2019-04-19T16:10:34.930Z,1676
2019-04-19T16:11:50.395Z,1681
2019-04-19T16:13:07.605Z,1614
2019-04-19T16:14:17.860Z,1608
2019-04-19T16:15:32.326Z,1597
2019-04-19T16:16:45.405Z,1569
2019-04-19T16:17:59.911Z,1535
2019-04-19T16:19:12.278Z,1530
2019-04-19T16:20:27.153Z,1473
2019-04-19T16:21:41.611Z,1383
2019-04-19T16:22:52.340Z,1344
2019-04-19T16:24:07.076Z,1299
2019-04-19T16:25:25.324Z,843
2019-04-19T16:26:35.011Z,382
2019-04-19T16:27:52.090Z,360
2019-04-19T16:29:05.933Z,309
2019-04-19T16:30:20.884Z,258
2019-04-19T16:31:36.084Z,225
2019-04-19T16:32:48.873Z,219
2019-04-19T16:34:01.914Z,208
2019-04-19T16:35:13.861Z,208
2019-04-19T16:36:43.879Z,202
2019-04-19T16:37:55.638Z,196